createdAt,value
2022-08-28T00:00:52.148Z,20.82
2022-08-28T00:03:20.184Z,20.82
2022-08-28T00:05:47.901Z,20.79
2022-08-28T00:08:15.739Z,20.67
2022-08-28T00:10:44.060Z,20.76
2022-08-28T00:13:18.676Z,20.74
2022-08-28T00:15:48.584Z,20.75
2022-08-28T00:18:16.601Z,20.75
2022-08-28T00:20:44.732Z,20.69
2022-08-28T00:23:12.755Z,20.75
2022-08-28T00:25:40.384Z,20.76
2022-08-28T00:28:10.500Z,20.73
2022-08-28T00:30:52.756Z,20.75
2022-08-28T00:33:30.456Z,20.74
2022-08-28T00:35:58.211Z,20.68
2022-08-28T00:38:26.366Z,20.73
2022-08-28T00:40:55.813Z,20.74
2022-08-28T00:43:43.851Z,20.76
2022-08-28T00:46:20.652Z,20.80
2022-08-28T00:48:48.612Z,20.76
2022-08-28T00:51:35.294Z,20.76
2022-08-28T00:54:07.364Z,20.79
2022-08-28T00:56:38.230Z,20.76
2022-08-28T00:59:08.846Z,20.69
2022-08-28T01:01:36.645Z,20.56
2022-08-28T01:04:06.420Z,20.50
2022-08-28T01:06:35.055Z,20.53
2022-08-28T01:09:03.507Z,20.53
2022-08-28T01:11:31.717Z,20.52
2022-08-28T01:14:01.973Z,20.51
2022-08-28T01:16:31.679Z,20.46
2022-08-28T01:19:08.032Z,20.50
2022-08-28T01:21:36.812Z,20.46
2022-08-28T01:24:14.955Z,20.42
2022-08-28T01:26:43.328Z,20.26
2022-08-28T01:29:11.591Z,20.23
2022-08-28T01:31:41.232Z,20.20
2022-08-28T01:34:09.728Z,20.17
2022-08-28T01:36:37.327Z,20.15
2022-08-28T01:39:08.485Z,20.05
2022-08-28T01:41:45.935Z,20.06
2022-08-28T01:44:17.917Z,19.94
2022-08-28T01:46:46.719Z,19.91
2022-08-28T01:49:14.597Z,19.92
2022-08-28T01:51:42.393Z,19.85
2022-08-28T01:54:10.177Z,19.85
2022-08-28T01:56:39.806Z,19.90
2022-08-28T01:59:08.209Z,19.89
2022-08-28T02:01:35.946Z,19.95
2022-08-28T02:04:04.637Z,19.96
2022-08-28T02:06:32.661Z,19.97
2022-08-28T02:09:01.106Z,20.01
2022-08-28T02:11:29.860Z,20.01
2022-08-28T02:13:57.476Z,19.99
2022-08-28T02:16:25.885Z,19.91
2022-08-28T02:18:53.853Z,19.89
2022-08-28T02:21:21.442Z,19.97
2022-08-28T02:23:49.371Z,20.00
2022-08-28T02:26:17.324Z,20.03
2022-08-28T02:28:45.067Z,20.05
2022-08-28T02:31:13.099Z,20.06
2022-08-28T02:33:43.194Z,20.08
2022-08-28T02:36:11.687Z,20.11
2022-08-28T02:38:39.402Z,20.07
2022-08-28T02:41:07.139Z,20.04
2022-08-28T02:43:34.806Z,20.06
2022-08-28T02:46:03.073Z,20.05
2022-08-28T02:48:36.817Z,20.02
2022-08-28T02:51:06.448Z,19.96
2022-08-28T02:53:34.083Z,19.86
2022-08-28T02:56:03.138Z,19.88
2022-08-28T02:58:32.401Z,19.70
2022-08-28T03:01:01.045Z,19.72
2022-08-28T03:03:31.231Z,19.72
2022-08-28T03:06:02.726Z,19.73
2022-08-28T03:08:30.626Z,19.68
2022-08-28T03:10:58.320Z,19.72
2022-08-28T03:13:26.761Z,19.64
2022-08-28T03:15:55.691Z,19.53
2022-08-28T03:18:25.566Z,19.58
2022-08-28T03:20:53.923Z,19.67
2022-08-28T03:23:27.473Z,19.62
2022-08-28T03:26:05.158Z,19.71
2022-08-28T03:28:35.011Z,19.74
2022-08-28T03:31:03.099Z,19.79
2022-08-28T03:33:31.217Z,19.86
2022-08-28T03:35:59.641Z,19.92
2022-08-28T03:38:27.217Z,19.87
2022-08-28T03:40:54.947Z,19.87
2022-08-28T03:43:24.384Z,19.89
2022-08-28T03:45:59.878Z,19.84
2022-08-28T03:48:28.700Z,19.95
2022-08-28T03:50:56.773Z,20.00
2022-08-28T03:53:25.688Z,20.01
2022-08-28T03:55:53.408Z,20.01
2022-08-28T03:58:21.017Z,20.07
2022-08-28T04:00:48.664Z,20.16
2022-08-28T04:03:16.331Z,20.23
2022-08-28T04:05:44.602Z,20.35
2022-08-28T04:08:16.089Z,20.45
2022-08-28T04:10:44.793Z,20.50
2022-08-28T04:13:12.829Z,20.62
2022-08-28T04:15:41.864Z,20.75
2022-08-28T04:18:10.472Z,20.96
2022-08-28T04:20:38.485Z,21.49
2022-08-28T04:23:13.322Z,21.68
2022-08-28T04:25:44.017Z,22.67
2022-08-28T04:28:12.903Z,23.29
2022-08-28T04:30:42.949Z,23.32
2022-08-28T04:33:12.357Z,23.52
2022-08-28T04:35:42.248Z,24.11
2022-08-28T04:38:14.196Z,24.96
2022-08-28T04:40:43.518Z,25.35
2022-08-28T04:43:14.211Z,25.45
2022-08-28T04:45:46.159Z,25.93
2022-08-28T04:48:16.948Z,26.67
2022-08-28T04:50:47.764Z,27.12
2022-08-28T04:53:17.465Z,27.70
2022-08-28T04:55:54.184Z,27.61
2022-08-28T04:58:24.242Z,27.75
2022-08-28T05:00:56.133Z,28.30
2022-08-28T05:03:27.329Z,28.73
2022-08-28T05:05:59.175Z,29.26
2022-08-28T05:08:30.216Z,29.49
2022-08-28T05:11:12.946Z,29.21
2022-08-28T05:13:41.620Z,28.97
2022-08-28T05:16:09.798Z,28.73
2022-08-28T05:18:37.852Z,28.49
2022-08-28T05:21:10.616Z,28.11
2022-08-28T05:23:40.920Z,27.96
2022-08-28T05:26:16.505Z,27.63
2022-08-28T05:28:44.252Z,27.25
2022-08-28T05:31:14.711Z,27.26
2022-08-28T05:33:43.787Z,27.14
2022-08-28T05:36:11.780Z,27.09
2022-08-28T05:38:39.815Z,26.88
2022-08-28T05:41:08.853Z,26.82
2022-08-28T05:43:37.234Z,26.88
2022-08-28T05:46:07.901Z,26.84
2022-08-28T05:48:39.624Z,26.76
2022-08-28T05:51:07.992Z,26.73
2022-08-28T05:53:38.971Z,26.81
2022-08-28T05:56:07.377Z,26.83
2022-08-28T05:58:37.678Z,27.02
2022-08-28T06:01:07.916Z,27.20
2022-08-28T06:03:36.381Z,27.12
2022-08-28T06:06:04.962Z,27.11
2022-08-28T06:08:33.244Z,27.17
2022-08-28T06:11:02.646Z,27.25
2022-08-28T06:13:31.597Z,27.40
2022-08-28T06:15:59.641Z,27.43
2022-08-28T06:18:28.146Z,27.38
2022-08-28T06:20:56.061Z,27.36
2022-08-28T06:23:24.325Z,27.38
2022-08-28T06:25:52.209Z,27.35
2022-08-28T06:28:22.751Z,27.28
2022-08-28T06:31:18.047Z,27.26
2022-08-28T06:33:38.988Z,27.42
2022-08-28T06:36:08.242Z,27.51
2022-08-28T06:38:36.789Z,27.57
2022-08-28T06:41:09.129Z,27.68
2022-08-28T06:43:37.043Z,27.76
2022-08-28T06:46:05.029Z,27.86
2022-08-28T06:48:32.791Z,27.98
2022-08-28T06:51:00.668Z,28.12
2022-08-28T06:53:29.521Z,28.32
2022-08-28T06:56:01.945Z,28.56
2022-08-28T06:58:32.841Z,28.74
2022-08-28T07:01:25.987Z,28.74
2022-08-28T07:03:57.503Z,28.85
2022-08-28T07:06:25.805Z,29.15
2022-08-28T07:08:54.444Z,29.06
2022-08-28T07:11:28.455Z,29.17
2022-08-28T07:14:00.578Z,29.23
2022-08-28T07:16:34.518Z,29.32
2022-08-28T07:19:05.124Z,29.12
2022-08-28T07:21:38.964Z,29.19
2022-08-28T07:24:13.288Z,29.17
2022-08-28T07:26:45.415Z,29.38
2022-08-28T07:29:14.885Z,29.41
2022-08-28T07:31:49.399Z,29.54
2022-08-28T07:34:18.889Z,29.60
2022-08-28T07:36:47.865Z,29.59
2022-08-28T07:39:16.131Z,29.42
2022-08-28T07:41:44.415Z,29.54
2022-08-28T07:44:32.819Z,29.56
2022-08-28T07:47:04.554Z,29.57
2022-08-28T07:49:34.016Z,29.63
2022-08-28T07:52:02.523Z,29.54
2022-08-28T07:54:31.897Z,29.77
2022-08-28T07:57:03.558Z,29.83
2022-08-28T07:59:41.049Z,29.98
2022-08-28T08:02:13.904Z,30.05
2022-08-28T08:04:42.420Z,30.07
2022-08-28T08:07:13.039Z,30.19
2022-08-28T08:09:42.014Z,30.12
2022-08-28T08:12:10.568Z,30.08
2022-08-28T08:14:39.679Z,30.21
2022-08-28T08:17:07.657Z,30.36
2022-08-28T08:19:36.045Z,30.66
2022-08-28T08:22:07.302Z,30.59
2022-08-28T08:24:35.632Z,30.62
2022-08-28T08:27:03.467Z,30.75
2022-08-28T08:29:35.812Z,30.71
2022-08-28T08:32:08.019Z,30.86
2022-08-28T08:34:38.842Z,30.89
2022-08-28T08:37:06.806Z,30.74
2022-08-28T08:39:35.390Z,31.11
2022-08-28T08:42:04.103Z,31.32
2022-08-28T08:44:35.484Z,31.32
2022-08-28T08:47:43.904Z,31.31
2022-08-28T08:50:14.811Z,31.50
2022-08-28T08:52:48.217Z,31.25
2022-08-28T08:55:25.661Z,31.47
2022-08-28T08:58:01.431Z,31.58
2022-08-28T09:00:31.132Z,31.51
2022-08-28T09:03:34.151Z,31.52
2022-08-28T09:06:03.742Z,31.66
2022-08-28T09:08:37.263Z,31.86
2022-08-28T09:11:30.644Z,32.01
2022-08-28T09:14:29.756Z,32.17
2022-08-28T09:16:57.539Z,32.32
2022-08-28T09:19:25.050Z,32.44
2022-08-28T09:21:52.985Z,32.38
2022-08-28T09:24:24.088Z,32.52
2022-08-28T09:26:53.944Z,32.61
2022-08-28T09:29:26.882Z,32.83
2022-08-28T09:31:54.500Z,32.80
2022-08-28T09:34:38.130Z,32.90
2022-08-28T09:37:08.559Z,32.95
2022-08-28T09:39:36.772Z,33.06
2022-08-28T09:42:38.699Z,32.81
2022-08-28T09:45:18.749Z,32.97
2022-08-28T09:47:59.887Z,33.08
2022-08-28T09:50:30.639Z,33.04
2022-08-28T09:53:10.573Z,33.13
2022-08-28T09:58:54.168Z,33.60
2022-08-28T10:01:51.295Z,33.49
2022-08-28T10:04:46.663Z,33.59
2022-08-28T10:07:30.664Z,33.68
2022-08-28T10:10:06.558Z,33.62
2022-08-28T10:12:54.104Z,33.77
2022-08-28T10:15:46.825Z,33.90
2022-08-28T10:18:20.456Z,33.51
2022-08-28T10:21:19.068Z,33.60
2022-08-28T10:24:05.445Z,33.95
2022-08-28T10:26:52.432Z,33.97
2022-08-28T10:29:35.396Z,34.13
2022-08-28T10:32:15.934Z,34.12
2022-08-28T10:34:49.996Z,33.96
2022-08-28T10:37:42.189Z,34.32
2022-08-28T10:40:31.068Z,34.33
2022-08-28T10:43:07.843Z,34.25
2022-08-28T10:45:36.435Z,34.38
2022-08-28T10:48:41.776Z,34.39
2022-08-28T10:51:17.661Z,34.43
2022-08-28T10:53:55.193Z,34.54
2022-08-28T10:57:01.208Z,34.23
2022-08-28T10:59:30.545Z,33.99
2022-08-28T11:01:58.283Z,34.03
2022-08-28T11:04:26.217Z,34.18
2022-08-28T11:06:56.974Z,34.65
2022-08-28T11:09:37.457Z,34.33
2022-08-28T11:12:07.666Z,34.16
2022-08-28T11:14:35.637Z,33.98
2022-08-28T11:17:23.076Z,33.76
2022-08-28T11:20:07.519Z,33.59
2022-08-28T11:22:35.472Z,33.91
2022-08-28T11:25:09.897Z,33.77
2022-08-28T11:27:39.635Z,34.10
2022-08-28T11:30:11.600Z,34.33
2022-08-28T11:32:56.282Z,34.50
2022-08-28T11:35:30.285Z,34.22
2022-08-28T11:37:58.609Z,33.79
2022-08-28T11:40:32.369Z,33.78
2022-08-28T11:43:16.302Z,33.77
2022-08-28T11:45:48.241Z,33.78
2022-08-28T11:48:34.603Z,33.74
2022-08-28T11:51:07.426Z,33.66
2022-08-28T11:54:14.946Z,33.61
2022-08-28T11:56:48.974Z,33.32
2022-08-28T11:59:34.840Z,33.38
2022-08-28T12:02:44.482Z,33.23
2022-08-28T12:05:32.573Z,33.58
2022-08-28T12:08:01.477Z,33.55
2022-08-28T12:10:31.038Z,33.24
2022-08-28T12:12:59.661Z,33.08
2022-08-28T12:15:27.605Z,33.18
2022-08-28T12:18:02.916Z,33.17
2022-08-28T12:20:46.117Z,33.20
2022-08-28T12:23:32.325Z,33.80
2022-08-28T12:26:06.822Z,34.40
2022-08-28T12:28:48.226Z,35.02
2022-08-28T12:31:49.860Z,34.79
2022-08-28T12:34:42.847Z,34.24
2022-08-28T12:37:28.712Z,33.84
2022-08-28T12:39:58.680Z,34.36
2022-08-28T12:42:38.261Z,34.91
2022-08-28T12:45:08.163Z,35.06
2022-08-28T12:47:37.403Z,35.57
2022-08-28T12:50:38.701Z,35.71
2022-08-28T12:53:08.435Z,35.93
2022-08-28T12:55:36.459Z,35.38
2022-08-28T12:58:04.038Z,36.06
2022-08-28T13:00:37.140Z,36.16
2022-08-28T13:03:05.312Z,36.36
2022-08-28T13:05:41.761Z,36.90
2022-08-28T13:08:12.383Z,37.09
2022-08-28T13:10:48.564Z,37.20
2022-08-28T13:13:21.273Z,36.79
2022-08-28T13:15:52.221Z,36.26
2022-08-28T13:18:38.356Z,35.94
2022-08-28T13:21:17.863Z,36.15
2022-08-28T13:24:20.640Z,35.88
2022-08-28T13:26:49.865Z,36.85
2022-08-28T13:29:22.409Z,37.04
2022-08-28T13:32:09.473Z,37.46
2022-08-28T13:34:37.918Z,37.73
2022-08-28T13:37:20.331Z,38.04
2022-08-28T13:39:48.445Z,37.72
2022-08-28T13:42:16.622Z,37.26
2022-08-28T13:44:49.539Z,36.52
2022-08-28T13:47:17.875Z,36.38
2022-08-28T13:49:45.779Z,36.13
2022-08-28T13:52:13.426Z,36.50
2022-08-28T13:54:43.676Z,36.31
2022-08-28T13:57:13.935Z,36.59
2022-08-28T13:59:43.184Z,36.84
2022-08-28T14:02:32.774Z,37.23
2022-08-28T14:05:00.938Z,37.33
2022-08-28T14:07:29.603Z,37.10
2022-08-28T14:09:57.528Z,36.86
2022-08-28T14:12:32.783Z,36.51
2022-08-28T14:15:02.273Z,35.75
2022-08-28T14:17:30.553Z,35.40
2022-08-28T14:20:00.399Z,34.69
2022-08-28T14:22:28.603Z,34.26
2022-08-28T14:24:56.433Z,33.89
2022-08-28T14:27:25.042Z,33.79
2022-08-28T14:29:53.655Z,33.48
2022-08-28T14:32:21.294Z,33.56
2022-08-28T14:34:50.889Z,33.73
2022-08-28T14:37:19.409Z,32.34
2022-08-28T14:39:48.304Z,31.10
2022-08-28T14:42:16.262Z,30.51
2022-08-28T14:44:44.615Z,29.62
2022-08-28T14:47:12.943Z,28.94
2022-08-28T14:49:40.878Z,28.60
2022-08-28T14:52:09.655Z,28.26
2022-08-28T14:54:38.246Z,27.74
2022-08-28T14:57:07.668Z,27.39
2022-08-28T14:59:35.229Z,27.11
2022-08-28T15:02:04.474Z,26.71
2022-08-28T15:04:35.656Z,26.68
2022-08-28T15:07:06.724Z,26.44
2022-08-28T15:09:38.308Z,26.34
2022-08-28T15:12:06.559Z,26.07
2022-08-28T15:14:35.802Z,25.82
2022-08-28T15:17:03.836Z,25.64
2022-08-28T15:19:31.797Z,25.38
2022-08-28T15:22:00.428Z,24.21
2022-08-28T15:24:31.748Z,23.65
2022-08-28T15:27:00.067Z,23.38
2022-08-28T15:29:28.664Z,23.26
2022-08-28T15:31:56.649Z,23.19
2022-08-28T15:34:25.960Z,23.22
2022-08-28T15:36:55.550Z,23.17
2022-08-28T15:39:43.986Z,23.13
2022-08-28T15:42:12.900Z,23.11
2022-08-28T15:44:40.930Z,23.14
2022-08-28T15:47:09.109Z,23.19
2022-08-28T15:49:46.846Z,23.14
2022-08-28T15:52:19.129Z,23.05
2022-08-28T15:54:47.736Z,22.96
2022-08-28T15:57:16.011Z,22.89
2022-08-28T15:59:49.761Z,22.81
2022-08-28T16:02:22.345Z,22.82
2022-08-28T16:04:51.918Z,22.85
2022-08-28T16:07:20.062Z,22.82
2022-08-28T16:09:47.693Z,22.77
2022-08-28T16:12:16.171Z,22.69
2022-08-28T16:14:43.807Z,22.70
2022-08-28T16:17:12.082Z,22.66
2022-08-28T16:19:40.495Z,22.63
2022-08-28T16:22:12.135Z,22.59
2022-08-28T16:24:39.893Z,22.52
2022-08-28T16:27:13.139Z,22.48
2022-08-28T16:29:44.549Z,22.50
2022-08-28T16:32:12.819Z,22.54
2022-08-28T16:34:40.621Z,22.54
2022-08-28T16:37:14.336Z,22.60
2022-08-28T16:39:47.644Z,22.66
2022-08-28T16:42:15.937Z,22.67
2022-08-28T16:44:43.922Z,22.65
2022-08-28T16:47:11.610Z,22.60
2022-08-28T16:49:39.945Z,22.59
2022-08-28T16:52:07.967Z,22.47
2022-08-28T16:54:36.428Z,22.46
2022-08-28T16:57:04.520Z,22.42
2022-08-28T16:59:32.941Z,22.36
2022-08-28T17:02:05.213Z,22.24
2022-08-28T17:04:33.712Z,22.30
2022-08-28T17:07:02.281Z,22.26
2022-08-28T17:09:32.919Z,22.22
2022-08-28T17:12:01.455Z,22.14
2022-08-28T17:14:31.988Z,22.18
2022-08-28T17:17:00.216Z,22.17
2022-08-28T17:19:28.542Z,22.20
2022-08-28T17:22:15.581Z,22.13
2022-08-28T17:24:43.860Z,22.15
2022-08-28T17:27:16.920Z,22.12
2022-08-28T17:29:50.500Z,22.07
2022-08-28T17:32:18.173Z,22.09
2022-08-28T17:34:46.458Z,22.08
2022-08-28T17:37:14.387Z,22.07
2022-08-28T17:39:42.733Z,22.02
2022-08-28T17:42:10.864Z,21.85
2022-08-28T17:44:39.516Z,21.86
2022-08-28T17:47:07.511Z,21.85
2022-08-28T17:49:35.392Z,21.84
2022-08-28T17:52:04.140Z,21.85
2022-08-28T17:54:33.360Z,21.91
2022-08-28T17:57:03.476Z,21.99
2022-08-28T17:59:33.184Z,21.98
2022-08-28T18:02:01.851Z,21.92
2022-08-28T18:04:30.080Z,21.88
2022-08-28T18:06:58.818Z,21.87
2022-08-28T18:09:27.078Z,21.77
2022-08-28T18:11:55.304Z,21.60
2022-08-28T18:14:23.755Z,21.58
2022-08-28T18:16:52.140Z,21.62
2022-08-28T18:19:20.578Z,21.66
2022-08-28T18:21:48.538Z,21.66
2022-08-28T18:24:17.441Z,21.74
2022-08-28T18:26:45.867Z,21.71
2022-08-28T18:29:14.398Z,21.70
2022-08-28T18:31:43.049Z,21.69
2022-08-28T18:34:11.680Z,21.67
2022-08-28T18:36:41.929Z,21.67
2022-08-28T18:39:10.429Z,21.70
2022-08-28T18:41:44.001Z,21.64
2022-08-28T18:44:15.797Z,21.67
2022-08-28T18:46:44.922Z,21.56
2022-08-28T18:49:13.109Z,21.56
2022-08-28T18:51:42.423Z,21.57
2022-08-28T18:54:12.278Z,21.56
2022-08-28T18:56:42.255Z,21.57
2022-08-28T18:59:11.374Z,21.55
2022-08-28T19:01:39.767Z,21.41
2022-08-28T19:04:07.911Z,21.39
2022-08-28T19:06:36.437Z,21.42
2022-08-28T19:09:05.951Z,21.42
2022-08-28T19:11:36.716Z,21.38
2022-08-28T19:14:05.432Z,21.40
2022-08-28T19:16:35.761Z,21.37
2022-08-28T19:19:04.585Z,21.28
2022-08-28T19:21:33.289Z,21.18
2022-08-28T19:24:01.401Z,21.15
2022-08-28T19:26:29.644Z,21.15
2022-08-28T19:28:57.854Z,21.13
2022-08-28T19:31:26.073Z,21.14
2022-08-28T19:33:54.226Z,21.12
2022-08-28T19:36:22.385Z,21.10
2022-08-28T19:38:51.462Z,21.04
2022-08-28T19:41:20.372Z,20.93
2022-08-28T19:43:48.988Z,20.87
2022-08-28T19:46:19.477Z,20.87
2022-08-28T19:48:48.576Z,20.82
2022-08-28T19:51:17.711Z,20.84
2022-08-28T19:53:57.421Z,20.83
2022-08-28T19:56:33.648Z,20.88
2022-08-28T19:59:02.683Z,20.85
2022-08-28T20:01:34.958Z,20.80
2022-08-28T20:04:03.090Z,20.76
2022-08-28T20:06:32.033Z,20.80
2022-08-28T20:09:01.593Z,20.83
2022-08-28T20:11:30.989Z,20.81
2022-08-28T20:14:05.328Z,20.86
2022-08-28T20:16:36.256Z,20.88
2022-08-28T20:19:05.667Z,20.85
2022-08-28T20:21:37.149Z,20.84
2022-08-28T20:24:10.860Z,20.84
2022-08-28T20:26:41.434Z,20.75
2022-08-28T20:29:09.508Z,20.72
2022-08-28T20:31:41.858Z,20.69
2022-08-28T20:34:11.993Z,20.63
2022-08-28T20:36:43.013Z,20.63
2022-08-28T20:39:11.602Z,20.60
2022-08-28T20:41:42.229Z,20.55
2022-08-28T20:44:11.565Z,20.47
2022-08-28T20:46:41.677Z,20.37
2022-08-28T20:49:11.358Z,20.30
2022-08-28T20:51:59.123Z,20.26
2022-08-28T20:54:32.569Z,20.19
2022-08-28T20:57:02.698Z,20.17
2022-08-28T20:59:37.274Z,20.14
2022-08-28T21:02:15.434Z,20.12
2022-08-28T21:04:45.778Z,20.07
2022-08-28T21:07:14.801Z,19.99
2022-08-28T21:10:05.739Z,19.96
2022-08-28T21:12:32.753Z,19.94
2022-08-28T21:15:00.898Z,19.89
2022-08-28T21:17:30.685Z,19.89
2022-08-28T21:20:00.874Z,19.88
2022-08-28T21:22:30.280Z,19.82
2022-08-28T21:24:58.548Z,19.74
2022-08-28T21:27:27.478Z,19.63
2022-08-28T21:30:19.472Z,19.56
2022-08-28T21:32:49.862Z,19.47
2022-08-28T21:35:21.790Z,19.41
2022-08-28T21:37:50.012Z,19.43
2022-08-28T21:40:21.276Z,19.41
2022-08-28T21:42:49.316Z,19.30
2022-08-28T21:45:18.051Z,19.21
2022-08-28T21:47:47.169Z,19.12
2022-08-28T21:50:17.079Z,19.08
2022-08-28T21:52:46.069Z,19.05
2022-08-28T21:55:15.816Z,19.03
2022-08-28T21:57:44.757Z,18.99
2022-08-28T22:00:19.396Z,19.01
2022-08-28T22:02:48.988Z,18.96
2022-08-28T22:05:17.879Z,18.93
2022-08-28T22:07:52.337Z,18.90
2022-08-28T22:10:21.288Z,18.92
2022-08-28T22:12:49.085Z,18.91
2022-08-28T22:15:17.531Z,18.90
2022-08-28T22:17:45.400Z,18.88
2022-08-28T22:20:13.416Z,18.80
2022-08-28T22:23:11.474Z,18.68
2022-08-28T22:25:42.634Z,18.65
2022-08-28T22:28:11.477Z,18.65
2022-08-28T22:31:03.393Z,18.67
2022-08-28T22:33:34.514Z,18.65
2022-08-28T22:36:03.432Z,18.58
2022-08-28T22:38:31.707Z,18.52
2022-08-28T22:41:00.498Z,18.50
2022-08-28T22:43:28.383Z,18.45
2022-08-28T22:45:56.813Z,18.44
2022-08-28T22:48:27.541Z,18.46
2022-08-28T22:51:09.112Z,18.48
2022-08-28T22:53:37.838Z,18.40
2022-08-28T22:56:06.003Z,18.36
2022-08-28T22:58:35.064Z,18.32
2022-08-28T23:01:07.661Z,18.34
2022-08-28T23:03:36.298Z,18.30
2022-08-28T23:06:04.724Z,18.31
2022-08-28T23:08:34.119Z,18.34
2022-08-28T23:11:02.769Z,18.39
2022-08-28T23:13:30.975Z,18.37
2022-08-28T23:16:00.221Z,18.30
2022-08-28T23:18:28.794Z,18.26
2022-08-28T23:21:01.480Z,18.24
2022-08-28T23:23:29.908Z,18.15
2022-08-28T23:25:58.352Z,18.17
2022-08-28T23:28:26.908Z,18.21
2022-08-28T23:30:54.651Z,18.21
2022-08-28T23:33:24.037Z,18.21
2022-08-28T23:35:52.892Z,18.21
2022-08-28T23:38:21.653Z,18.12
2022-08-28T23:40:50.045Z,18.09
2022-08-28T23:43:19.253Z,18.08
2022-08-28T23:45:47.496Z,18.04
2022-08-28T23:48:17.478Z,18.00
2022-08-28T23:50:48.014Z,17.89
2022-08-28T23:53:16.590Z,17.80
2022-08-28T23:55:45.256Z,17.66
2022-08-28T23:58:13.352Z,17.58
